Kayseri/Erkilet, Turkey
Current Conditions -  °F | °C
As of 7:50 AM on Tuesday 23 Dec 2014 (Local Time) from LTAU Reporting Station
Scattered Clouds Scattered Clouds  
Wind Chill: 18°   Ceiling: Unl
Heat Index: 18°   Visibility: 6mi
Dew Point: 16°   Wind: 1mph
Humidity: 93%   Direction: 360°N
Pressure: 30.15"   Gusts: NA
Location:  38.82°N, 35.45°E
Report Text: LTAU 230450Z 36001KT 9999 FEW040 SCT100 M08/M09 Q1021 NOSIG
Loading
Personal Weather Stations






























Interactive Weather Map New forecast layout! Learn more

10-Day Weather Forecast

Advertisements
Track Severe Weather on mobile